首页
METAR-TAF:

METAR-TAF

机场 :

Lafayette Regional Airport

拉法葉, 路易斯安那州, 美国

纬度: 30-12-08N, 经度: 091-59-35W, 海拔: 12米

当前天气观测

该预报发布于25分钟前的12:53 UTC
风速5节,风向北转东北
温度 13°C
湿度 72%
气压 1028 hPa
能見度: 16.1公里
阴天层高于1400英尺

METAR: KLFT 201253Z 03005KT 10SM OVC014 13/08 A3035 RMK AO2 SLP278 T01330083

时间: 07:18 (13:18 UTC)

预报

该预报发布于1小时和26分钟前的11:52 UTC
预报有效从20日的 12点(UTC)到 21日的 12点(UTC)
风速5节,风向北转东北
能見度: 10公里
阴天层高于1500英尺
短暂存在
从 20日的 12点(UTC)到 20日的 15点(UTC)
能見度: 4.8公里
多云层高于700英尺
轻雾
从 20日的 1500点(UTC)
风速5节,风向东转东北
能見度: 10公里
多云层高于2500英尺
多云层高于8000英尺
从 20日的 1800点(UTC)
风速5节,风向东转东南
能見度: 10公里
散云层高于2500英尺
多云层高于8000英尺
从 20日的 2100点(UTC)
风速7节,风向
能見度: 10公里
散云层高于2500英尺
多云层高于8000英尺
从 21日的 0400点(UTC)
风速5节,风向
能見度: 6.4公里
阴天层高于700英尺
轻雾

TAF: KLFT 201152Z 2012/2112 03005KT P6SM OVC015 TEMPO 2012/2015 3SM BR BKN007 FM201500 06005KT P6SM BKN025 BKN080 FM201800 12005KT P6SM SCT025 BKN080 FM202100 18007KT P6SM SCT025 BKN080 FM210400 18005KT 4SM BR OVC007

超过4000个机场的气象观测和天气预报(METAR&TAF报告)。

可查询的气象台以黄色和红色小点在地图上表示。

将鼠标移到小点上方,可查看气象台名称。

然后点击查看天气观测和预报。

如需切换地图:点击带黑十字的绿色按钮放大地图;点击带横线的绿色按钮缩小地图;或者点击绿色箭头查看邻近地区的地图。


METAR-TAF: